EW9605 Weather Reports


Display with metric or nautical units.
time (UTC)temp
F
wind
direction
speed
MPH
gust
MPH
rain 1hr
in
rain 24hr
in
rain mn
in
humidity
%
barometer
mb
20200526185020 87 253 3.0 11.0 0.00 0.90 0.00 67 1012.9
20200526184526 87 256 6.0 14.0 0.00 0.91 0.00 67 1012.7
20200526184032 87 228 6.0 10.0 0.00 0.93 0.00 69 1012.8
20200526183517 87 243 4.0 8.0 0.00 0.96 0.00 70 1013.0
20200526183023 87 254 6.0 9.0 0.00 1.04 0.00 69 1012.7
20200526182529 87 260 3.0 9.0 0.00 1.09 0.00 70 1012.6
20200526182035 86 240 6.0 10.0 0.00 1.11 0.00 68 1012.9
20200526181520 87 255 5.0 10.0 0.00 1.11 0.00 69 1012.7
20200526181026 87 244 5.0 11.0 0.00 1.11 0.00 69 1012.9
20200526180532 86 215 5.0 11.0 0.00 1.11 0.00 70 1013.0
20200526180017 86 241 3.0 7.0 0.00 1.11 0.00 70 1013.2
20200526175523 87 234 5.0 10.0 0.00 1.11 0.00 68 1013.1
20200526175029 87 224 8.0 13.0 0.00 1.11 0.00 69 1013.1
20200526174535 87 224 5.0 13.0 0.00 1.11 0.00 69 1013.4
20200526174019 86 228 8.0 14.0 0.00 1.11 0.00 69 1013.3
20200526173525 86 248 10.0 15.0 0.00 1.11 0.00 70 1013.3
20200526173032 86 252 2.0 9.0 0.00 1.11 0.00 72 1013.4
20200526172537 86 265 6.0 9.0 0.00 1.11 0.00 71 1013.5
20200526172022 86 251 3.0 7.0 0.00 1.11 0.00 70 1013.4
20200526171528 86 252 2.0 10.0 0.00 1.11 0.00 71 1013.4
20200526171034 86 230 5.0 9.0 0.00 1.11 0.00 71 1013.4
20200526170519 86 244 5.0 14.0 0.00 1.11 0.00 70 1013.5
20200526170025 86 229 5.0 14.0 0.00 1.11 0.00 72 1013.5
20200526165531 85 266 4.0 7.0 0.00 1.11 0.00 71 1013.3
20200526165037 85 238 5.0 10.0 0.00 1.11 0.00 71 1013.5
20200526164522 85 259 4.0 11.0 0.00 1.11 0.00 72 1013.4
20200526164028 85 259 5.0 8.0 0.00 1.11 0.00 72 1013.4
20200526163534 85 245 6.0 11.0 0.00 1.11 0.00 73 1013.3
20200526163018 85 239 9.0 14.0 0.00 1.11 0.00 73 1013.4
20200526162525 84 235 6.0 8.0 0.00 1.11 0.00 74 1013.4
20200526162031 84 256 7.0 11.0 0.00 1.11 0.00 74 1013.2
20200526161536 84 245 5.0 9.0 0.00 1.11 0.00 73 1013.2
20200526161021 84 236 7.0 10.0 0.00 1.11 0.00 73 1013.2
20200526160528 84 232 4.0 10.0 0.00 1.11 0.00 73 1013.2
20200526160019 84 269 9.0 14.0 0.00 1.11 0.00 73 1013.4
20200526155519 84 235 7.0 10.0 0.00 1.11 0.00 73 1013.1
20200526155024 84 251 6.0 11.0 0.00 1.11 0.00 73 1013.3
20200526154531 84 249 4.0 11.0 0.00 1.11 0.00 74 1013.1
20200526154037 83 244 5.0 9.0 0.00 1.11 0.00 75 1013.1
20200526153521 84 232 8.0 13.0 0.00 1.11 0.00 75 1013.2
20200526153027 83 214 5.0 9.0 0.00 1.11 0.00 76 1013.1
20200526152534 83 245 4.0 11.0 0.00 1.11 0.00 77 1013.3
20200526152019 83 236 6.0 10.0 0.00 1.11 0.00 78 1013.3
20200526151524 82 240 6.0 8.0 0.00 1.11 0.00 80 1013.1
20200526151030 82 217 3.0 4.0 0.00 1.11 0.00 79 1013.1
20200526150536 82 235 4.0 8.0 0.00 1.11 0.00 81 1013.4
20200526150021 82 235 6.0 10.0 0.00 1.11 0.00 82 1013.2
20200526145527 81 227 3.0 7.0 0.00 1.11 0.00 82 1013.6
20200526145033 81 217 4.0 10.0 0.00 1.11 0.00 83 1013.3
20200526144518 81 230 4.0 8.0 0.00 1.11 0.00 83 1013.5
20200526144024 81 210 4.0 8.0 0.00 1.11 0.00 84 1013.3
20200526143530 81 215 4.0 8.0 0.00 1.11 0.00 84 1013.4
20200526143036 80 220 3.0 8.0 0.00 1.11 0.00 84 1013.5
20200526142521 80 205 2.0 8.0 0.00 1.11 0.00 84 1013.3
20200526142027 80 224 3.0 7.0 0.00 1.11 0.00 84 1013.2
20200526141533 80 227 1.0 3.0 0.00 1.11 0.00 85 1013.2
20200526141018 80 221 3.0 6.0 0.00 1.11 0.00 84 1013.1
20200526140524 80 234 1.0 4.0 0.00 1.11 0.00 85 1013.3
20200526140030 79 218 0.0 3.0 0.00 1.11 0.00 86 1013.3
20200526135516 79 217 3.0 6.0 0.00 1.11 0.00 86 1013.4
20200526135021 79 0.0 0.0 0.00 1.11 0.00 87 1013.2
20200526134527 79 199 2.0 3.0 0.00 1.11 0.00 87 1013.2
20200526134033 78 131 2.0 3.0 0.00 1.11 0.00 87 1013.2
20200526133518 78 149 1.0 2.0 0.00 1.11 0.00 87 1013.2
20200526133024 78 127 0.0 2.0 0.00 1.11 0.00 87 1013.1
20200526132531 78 0.0 0.0 0.00 1.11 0.00 88 1013.3
20200526132036 77 109 1.0 4.0 0.00 1.11 0.00 89 1013.1
20200526131521 77 0.0 1.0 0.00 1.11 0.00 89 1013.1
20200526131026 77 0.0 0.0 0.00 1.11 0.00 89 1013.3
20200526130532 77 122 2.0 3.0 0.00 1.11 0.00 89 1013.1
20200526130018 77 121 2.0 3.0 0.00 1.11 0.00 89 1013.4
20200526125523 77 122 1.0 2.0 0.00 1.11 0.00 89 1013.2
20200526125029 77 122 1.0 3.0 0.00 1.11 0.00 89 1013.1
20200526124535 77 123 1.0 3.0 0.00 1.11 0.00 89 1013.2
20200526124020 77 122 1.0 2.0 0.00 1.11 0.00 89 1013.1
20200526123526 77 123 1.0 3.0 0.00 1.11 0.00 90 1013.2
20200526123031 76 123 2.0 3.0 0.00 1.11 0.00 90 1012.9
20200526122516 76 122 0.0 2.0 0.00 1.11 0.00 90 1012.9
20200526122022 76 0.0 2.0 0.00 1.11 0.00 90 1012.9
20200526121528 76 122 1.0 2.0 0.00 1.11 0.00 90 1013.0
20200526121035 76 127 3.0 4.0 0.00 1.11 0.00 90 1012.8
20200526120520 76 111 2.0 3.0 0.00 1.11 0.00 90 1012.9
20200526120026 76 111 3.0 4.0 0.00 1.11 0.00 90 1012.7
20200526115532 76 99 2.0 3.0 0.00 1.11 0.00 90 1012.8
20200526115016 76 98 1.0 2.0 0.00 1.11 0.00 90 1012.7
20200526114522 76 98 0.0 1.0 0.00 1.11 0.00 90 1012.7
20200526114028 76 0.0 1.0 0.00 1.11 0.00 90 1012.5
20200526113534 76 98 1.0 2.0 0.00 1.11 0.00 90 1012.8
20200526113021 75 92 0.0 1.0 0.00 1.11 0.00 91 1012.8
20200526112525 75 92 0.0 1.0 0.00 1.11 0.00 91 1012.7
20200526112031 75 0.0 0.0 0.00 1.11 0.00 91 1012.7
20200526111516 75 0.0 1.0 0.00 1.11 0.00 91 1012.7
20200526111022 75 0.0 0.0 0.00 1.11 0.00 91 1012.6
20200526110528 75 0.0 1.0 0.00 1.11 0.00 91 1012.3
20200526110035 75 101 1.0 1.0 0.00 1.11 0.00 91 1012.4
20200526105519 75 101 0.0 2.0 0.00 1.11 0.00 91 1012.2
20200526105026 75 101 2.0 3.0 0.00 1.11 0.00 91 1012.2
20200526104531 75 101 1.0 2.0 0.00 1.11 0.00 91 1012.2
20200526104016 75 101 2.0 3.0 0.00 1.11 0.00 91 1012.1
20200526103520 75 101 1.0 2.0 0.00 1.11 0.00 91 1011.9
20200526103028 75 101 2.0 2.0 0.00 1.11 0.00 91 1011.7
20200526102534 75 101 2.0 3.0 0.00 1.11 0.00 91 1011.8
20200526102020 75 113 2.0 3.0 0.00 1.11 0.00 91 1011.4
20200526101525 75 114 3.0 6.0 0.00 1.11 0.00 91 1011.4
20200526101034 75 113 3.0 6.0 0.00 1.11 0.00 91 1011.4
20200526100516 75 108 4.0 7.0 0.00 1.11 0.00 90 1011.2
20200526100022 75 109 5.0 7.0 0.00 1.11 0.00 90 1011.4
20200526095528 75 112 4.0 6.0 0.00 1.11 0.00 90 1011.3
20200526095035 75 112 5.0 9.0 0.00 1.11 0.00 90 1011.1
20200526094520 75 119 4.0 8.0 0.00 1.11 0.00 90 1011.2
20200526094026 75 86 4.0 6.0 0.00 1.11 0.00 90 1011.2
20200526093531 75 98 3.0 4.0 0.00 1.11 0.00 90 1011.1
20200526093037 75 100 2.0 4.0 0.00 1.11 0.00 90 1011.3
20200526092522 75 106 3.0 4.0 0.00 1.11 0.00 90 1011.2
20200526092028 75 116 4.0 6.0 0.00 1.11 0.00 90 1011.2
20200526091536 75 107 5.0 8.0 0.00 1.11 0.00 90 1011.3
20200526091019 75 111 7.0 9.0 0.00 1.11 0.00 90 1011.3
20200526090525 75 118 6.0 11.0 0.00 1.11 0.00 90 1011.2
20200526090031 75 102 5.0 8.0 0.00 1.11 0.00 90 1011.1
20200526085517 75 117 4.0 7.0 0.00 1.11 0.00 90 1011.3
20200526085022 75 123 4.0 6.0 0.00 1.11 0.00 90 1011.4
20200526084528 75 120 4.0 6.0 0.00 1.11 0.00 90 1011.3
20200526084034 75 111 4.0 7.0 0.00 1.11 0.00 90 1011.2
20200526083519 75 105 4.0 8.0 0.00 1.11 0.00 90 1011.2
20200526083025 75 111 4.0 7.0 0.00 1.11 0.00 90 1011.3
20200526082530 75 105 6.0 8.0 0.00 1.11 0.00 90 1011.1
20200526082015 75 105 5.0 9.0 0.00 1.11 0.00 90 1011.2
20200526081521 75 102 5.0 7.0 0.00 1.11 0.00 90 1011.4
20200526081028 75 107 4.0 8.0 0.00 1.11 0.00 90 1011.1
20200526080534 75 93 4.0 6.0 0.00 1.11 0.00 90 1011.1
20200526080019 75 96 4.0 6.0 0.00 1.11 0.00 90 1011.2
20200526075524 75 104 3.0 4.0 0.00 1.11 0.00 90 1011.3
20200526075030 75 117 5.0 9.0 0.00 1.11 0.00 90 1011.3
20200526074536 75 119 4.0 6.0 0.00 1.11 0.00 90 1011.4
20200526074022 75 102 6.0 8.0 0.00 1.11 0.00 90 1011.4
20200526073528 75 108 5.0 9.0 0.00 1.11 0.00 90 1011.4
20200526073034 75 116 3.0 6.0 0.00 1.11 0.00 90 1011.7
20200526072520 75 98 3.0 7.0 0.00 1.11 0.00 90 1011.4
20200526072025 75 116 3.0 6.0 0.00 1.11 0.00 90 1011.5
20200526071530 75 123 4.0 7.0 0.00 1.11 0.00 90 1011.5
20200526071036 75 123 2.0 3.0 0.00 1.11 0.00 90 1011.7
20200526070521 75 123 2.0 4.0 0.00 1.11 0.00 90 1011.7
20200526070028 75 125 4.0 6.0 0.00 1.11 0.00 90 1011.8
20200526065525 75 116 4.0 8.0 0.00 1.11 0.00 90 1012.0
20200526065029 75 107 3.0 6.0 0.00 1.11 0.00 90 1012.1
20200526064535 75 104 3.0 6.0 0.00 1.11 0.00 90 1011.9
20200526064021 75 107 4.0 8.0 0.00 1.11 0.00 90 1012.1
20200526063526 75 107 2.0 3.0 0.00 1.11 0.00 90 1012.2
20200526063033 75 102 2.0 6.0 0.00 1.11 0.00 90 1012.1
20200526062537 75 107 5.0 8.0 0.00 1.11 0.00 90 1012.1
20200526062022 75 115 8.0 13.0 0.00 1.11 0.00 90 1012.2
20200526061528 75 122 7.0 9.0 0.00 1.11 0.00 91 1012.1
20200526061034 75 119 9.0 11.0 0.00 1.11 0.00 91 1012.2
20200526060519 75 100 8.0 10.0 0.00 1.11 0.00 91 1012.2
20200526060025 75 111 9.0 14.0 0.00 1.11 0.00 91 1012.0
20200526055531 75 109 7.0 11.0 0.00 1.11 0.00 91 1012.0
20200526055037 75 120 8.0 11.0 0.00 1.11 0.00 91 1012.0
20200526054522 75 127 9.0 15.0 0.00 1.11 0.00 91 1012.0
20200526054027 75 108 6.0 10.0 0.00 1.11 0.00 91 1012.4
20200526053533 75 122 6.0 9.0 0.00 1.11 0.00 91 1012.7
20200526053018 75 106 7.0 13.0 0.00 1.11 0.00 91 1012.2
20200526052524 75 119 7.0 10.0 0.00 1.11 0.00 91 1012.1
20200526052030 75 129 9.0 16.0 0.00 1.11 0.00 91 1012.3
20200526051536 75 116 6.0 9.0 0.00 1.11 0.00 91 1012.3
20200526051021 75 124 6.0 10.0 0.00 1.11 0.00 91 1012.4
20200526050527 75 118 6.0 9.0 0.00 1.11 0.00 91 1012.6
20200526050033 75 122 8.0 15.0 0.00 1.11 0.00 91 1012.7
20200526045518 75 136 5.0 9.0 0.00 1.11 0.00 91 1013.0
20200526045024 75 111 6.0 9.0 0.00 1.11 0.00 91 1013.0
20200526044529 75 123 4.0 7.0 0.00 1.11 0.00 91 1013.0
20200526044035 75 112 4.0 10.0 0.00 1.11 0.00 91 1013.2
20200526043520 75 117 3.0 7.0 0.00 1.11 0.00 91 1013.4
20200526043026 75 119 4.0 6.0 0.00 1.11 0.00 91 1013.3
20200526042532 75 139 5.0 8.0 0.00 1.11 0.00 91 1013.3
20200526042017 75 123 5.0 7.0 0.00 1.11 0.00 91 1013.3
20200526041522 75 122 3.0 4.0 0.00 1.11 0.00 91 1013.0
20200526041029 75 107 5.0 7.0 0.00 1.11 0.00 91 1012.8
20200526040535 75 84 6.0 11.0 0.00 1.11 0.00 91 1012.9
20200526040020 75 120 5.0 11.0 0.00 1.11 0.00 91 1012.9
20200526035526 75 110 8.0 9.0 0.00 1.11 1.11 91 1012.8
20200526035032 75 115 8.0 10.0 0.00 1.11 1.11 91 1013.1
20200526034517 75 109 5.0 8.0 0.00 1.11 1.11 91 1012.9
20200526034023 75 102 6.0 10.0 0.00 1.11 1.11 91 1012.8
20200526033529 75 106 5.0 8.0 0.00 1.11 1.11 91 1012.8
20200526033035 75 110 5.0 9.0 0.00 1.11 1.11 91 1013.0
20200526032519 75 115 6.0 11.0 0.00 1.11 1.11 91 1012.8
20200526032024 75 105 5.0 10.0 0.00 1.11 1.11 91 1012.7
20200526031531 75 100 5.0 7.0 0.00 1.11 1.11 91 1012.6
20200526031036 75 116 6.0 7.0 0.00 1.11 1.11 91 1012.7
20200526030522 75 118 7.0 10.0 0.00 1.11 1.11 92 1012.7
20200526030027 75 108 6.0 8.0 0.00 1.11 1.11 92 1012.5
20200526025533 75 91 5.0 9.0 0.00 1.11 1.11 93 1012.4
20200526025019 75 97 5.0 9.0 0.00 1.11 1.11 92 1012.4
20200526024525 75 89 5.0 7.0 0.00 1.11 1.11 92 1012.5
20200526024031 75 94 1.0 8.0 0.00 1.11 1.11 92 1012.7
20200526023536 75 87 3.0 7.0 0.00 1.11 1.11 92 1012.6
20200526023022 75 96 4.0 7.0 0.00 1.11 1.11 90 1012.6
20200526022527 75 90 4.0 7.0 0.00 1.11 1.11 91 1012.8
20200526022033 75 93 3.0 6.0 0.00 1.11 1.11 91 1012.9
20200526021519 75 87 4.0 7.0 0.00 1.11 1.11 91 1012.7
20200526021024 75 91 5.0 7.0 0.00 1.11 1.11 90 1012.6
20200526020530 75 86 4.0 9.0 0.00 1.11 1.11 91 1012.7
20200526020036 75 97 3.0 7.0 0.00 1.11 1.11 90 1012.5
20200526015521 75 97 4.0 6.0 0.00 1.11 1.11 90 1012.5
20200526015027 75 96 5.0 7.0 0.00 1.11 1.11 90 1012.4
20200526014533 75 84 5.0 8.0 0.00 1.11 1.11 90 1012.3
20200526014018 75 106 5.0 8.0 0.00 1.11 1.11 90 1012.2
20200526013524 75 91 4.0 7.0 0.00 1.11 1.11 90 1012.3
20200526013030 75 90 4.0 8.0 0.00 1.11 1.11 90 1012.2
20200526012536 75 79 1.0 3.0 0.00 1.11 1.11 90 1012.1
20200526012021 75 92 3.0 4.0 0.00 1.11 1.11 89 1012.2
20200526011527 75 91 5.0 9.0 0.00 1.11 1.11 89 1011.9
20200526011033 75 91 6.0 8.0 0.00 1.11 1.11 89 1012.0
20200526010518 75 85 4.0 7.0 0.00 1.11 1.11 89 1012.0
20200526010024 75 113 4.0 7.0 0.00 1.11 1.11 89 1012.2
20200526005530 75 107 6.0 8.0 0.00 1.11 1.11 89 1012.1
20200526005036 75 97 5.0 11.0 0.00 1.11 1.11 90 1012.0
20200526004521 75 98 4.0 7.0 0.00 1.11 1.11 89 1011.8
20200526004027 75 96 9.0 11.0 0.00 1.11 1.11 90 1011.7
20200526003532 75 87 8.0 14.0 0.00 1.11 1.11 89 1011.6
20200526003017 75 87 5.0 11.0 0.00 1.11 1.11 89 1011.6
20200526002523 75 81 9.0 13.0 0.00 1.11 1.11 89 1011.7
20200526002029 75 96 7.0 13.0 0.00 1.11 1.11 89 1011.8
20200526001535 75 89 9.0 14.0 0.00 1.11 1.11 89 1011.9
20200526001019 76 90 8.0 16.0 0.00 1.11 1.11 89 1011.8
20200526000524 76 95 13.0 15.0 0.00 1.11 1.11 88 1011.9
20200526000030 76 103 5.0 10.0 0.00 1.11 1.11 87 1012.2
20200525235537 76 93 9.0 13.0 0.00 1.11 1.11 87 1011.8
20200525235022 76 112 6.0 13.0 0.00 1.11 1.11 87 1011.9
20200525234528 76 95 4.0 10.0 0.00 1.11 1.11 87 1011.8
20200525234034 76 94 6.0 10.0 0.00 1.11 1.11 88 1011.7
20200525233519 77 99 5.0 11.0 0.00 1.11 1.11 87 1011.7
20200525233025 77 105 13.0 17.0 0.00 1.11 1.11 87 1011.7
20200525232530 77 95 8.0 11.0 0.00 1.11 1.11 88 1011.6
20200525232037 77 104 7.0 9.0 0.00 1.11 1.11 88 1011.5
20200525231522 77 86 4.0 10.0 0.00 1.11 1.11 87 1011.5
20200525231027 76 92 4.0 9.0 0.00 1.11 1.11 88 1011.6
20200525230534 76 42 2.0 4.0 0.00 1.11 1.11 88 1011.6
20200525230018 76 87 4.0 9.0 0.00 1.11 1.11 88 1011.6
20200525225524 76 95 6.0 8.0 0.00 1.11 1.11 88 1011.6
20200525225030 76 105 6.0 11.0 0.00 1.11 1.11 88 1011.6
20200525224536 76 102 6.0 11.0 0.03 1.11 1.11 88 1011.7
20200525224020 76 108 5.0 13.0 0.10 1.11 1.11 88 1011.8
20200525223526 76 97 7.0 13.0 0.17 1.11 1.11 88 1011.6
20200525223032 75 90 4.0 10.0 0.25 1.11 1.11 88 1011.6
20200525222517 76 40 1.0 7.0 0.37 1.11 1.11 88 1012.0
20200525222023 76 0.0 2.0 0.49 1.11 1.11 88 1012.0
20200525221529 75 109 2.0 4.0 0.65 1.11 1.11 88 1012.0
20200525221035 75 102 2.0 8.0 0.72 1.11 1.11 88 1012.0
20200525220520 75 84 5.0 9.0 0.78 1.11 1.11 89 1011.7
20200525220026 75 40 2.0 8.0 0.86 1.11 1.11 88 1011.7
20200525215532 75 46 3.0 7.0 0.88 1.11 1.11 90 1011.8
20200525215017 75 75 1.0 2.0 0.89 1.10 1.10 89 1011.7
20200525214523 75 87 2.0 6.0 0.87 1.08 1.08 88 1011.8
20200525214029 76 85 2.0 7.0 0.80 1.01 1.01 87 1011.9
20200525213535 76 105 5.0 8.0 0.72 0.93 0.93 87 1011.9
20200525213020 76 98 5.0 8.0 0.65 0.86 0.86 89 1012.0
20200525212526 76 120 10.0 15.0 0.53 0.74 0.74 88 1012.1
20200525212032 77 127 7.0 14.0 0.41 0.63 0.62 86 1012.1
20200525211517 77 122 9.0 13.0 0.25 0.46 0.46 86 1011.9
20200525211023 77 118 4.0 6.0 0.18 0.39 0.39 85 1011.8
20200525210529 78 117 4.0 6.0 0.12 0.34 0.33 85 1011.9
20200525210035 78 95 3.0 9.0 0.04 0.26 0.25 84 1011.8
20200525205520 78 154 3.0 4.0 0.02 0.23 0.22 83 1011.6
20200525205026 79 137 3.0 8.0 0.00 0.22 0.21 86 1011.8
20200525204532 79 77 1.0 3.0 0.00 0.23 0.21 88 1011.9
20200525204017 79 45 2.0 4.0 0.00 0.24 0.21 87 1011.8
20200525203523 79 69 1.0 2.0 0.00 0.24 0.21 87 1012.1
20200525203029 79 87 3.0 4.0 0.00 0.24 0.21 88 1011.9
20200525202535 79 90 4.0 6.0 0.00 0.24 0.21 87 1012.0
20200525202020 79 85 2.0 6.0 0.00 0.24 0.21 88 1011.8
20200525201526 79 56 2.0 7.0 0.00 0.24 0.21 89 1011.4
20200525201032 79 21 5.0 7.0 0.00 0.24 0.21 90 1011.5
20200525200516 79 31 4.0 6.0 0.00 0.24 0.21 89 1011.8
20200525200022 79 32 2.0 4.0 0.00 0.24 0.21 89 1012.0
20200525195528 79 45 3.0 9.0 0.00 0.24 0.21 88 1011.9
20200525195033 79 38 4.0 6.0 0.00 0.24 0.21 87 1011.7
20200525194518 79 61 2.0 4.0 0.00 0.24 0.21 88 1011.8
20200525194025 79 87 3.0 7.0 0.03 0.24 0.21 85 1011.9
20200525193531 79 97 5.0 8.0 0.05 0.24 0.21 84 1011.8
20200525193038 79 101 4.0 7.0 0.14 0.24 0.21 85 1011.5
20200525192522 79 91 5.0 9.0 0.19 0.24 0.21 84 1011.9
20200525192027 79 97 1.0 3.0 0.21 0.24 0.21 83 1012.0
20200525191533 79 91 1.0 8.0 0.21 0.24 0.21 82 1011.8
20200525191019 79 110 6.0 9.0 0.21 0.24 0.21 81 1011.8
20200525190523 79 98 5.0 9.0 0.21 0.24 0.21 82 1012.1
20200525190029 79 103 7.0 11.0 0.21 0.24 0.21 83 1012.1
20200525185535 79 101 7.0 11.0 0.21 0.24 0.21 82 1012.2